Time;durP1;ratioP1;P1;durP2;ratioP2;P2;SDS_P1;SDS_P2;PMS_P1;PMS_P2;Temp;Humidity;BMP_temperature;BMP_pressure;BME280_temperature;BME280_humidity;BME280_pressure;Samples;Min_cycle;Max_cycle;Signal;HPM_P1;HPM_P2
2021/05/17 00:01:53;;;;;;;15.80;9.38;;;;;;;;;;5029884;28;20202;-72
2021/05/17 00:04:29;;;;;;;12.48;8.43;;;;;;;;;;5029791;28;20204;-71
2021/05/17 00:06:56;;;;;;;16.20;9.57;;;;;;;;;;5019801;28;20185;-71
2021/05/17 00:09:22;;;;;;;16.85;10.05;;;;;;;;;;5028246;28;20217;-72
2021/05/17 00:11:47;;;;;;;16.52;9.32;;;;;;;;;;5021930;28;20193;-71
2021/05/17 00:14:13;;;;;;;17.45;10.57;;;;;;;;;;5026995;28;20210;-71
2021/05/17 00:16:39;;;;;;;20.67;11.27;;;;;;;;;;5019712;28;20201;-71
2021/05/17 00:19:05;;;;;;;18.63;10.50;;;;;;;;;;5032100;28;20244;-71
2021/05/17 00:21:30;;;;;;;16.85;10.95;;;;;;;;;;5022791;28;20193;-71
2021/05/17 00:23:56;;;;;;;16.55;10.73;;;;;;;;;;5030275;28;20229;-71
2021/05/17 00:26:22;;;;;;;14.63;9.23;;;;;;;;;;5025858;28;20182;-70
2021/05/17 00:28:47;;;;;;;16.70;11.25;;;;;;;;;;5031789;28;20237;-71
2021/05/17 00:31:13;;;;;;;16.15;9.77;;;;;;;;;;5022438;28;20650;-70
2021/05/17 00:33:39;;;;;;;18.08;10.40;;;;;;;;;;5030971;28;20205;-71
2021/05/17 00:36:05;;;;;;;16.70;10.27;;;;;;;;;;5028609;28;20344;-71
2021/05/17 00:38:30;;;;;;;22.83;16.00;;;;;;;;;;5023134;28;20278;-72
2021/05/17 00:40:56;;;;;;;33.17;22.10;;;;;;;;;;5027525;28;20656;-71
2021/05/17 00:43:35;;;;;;;29.90;22.15;;;;;;;;;;5020029;28;20300;-71
2021/05/17 00:46:02;;;;;;;28.63;21.48;;;;;;;;;;5029525;28;20918;-71
2021/05/17 00:48:28;;;;;;;35.03;25.50;;;;;;;;;;5021843;28;20210;-71
2021/05/17 00:50:54;;;;;;;34.10;27.40;;;;;;;;;;5029630;28;20202;-71
2021/05/17 00:53:20;;;;;;;27.63;21.00;;;;;;;;;;5020142;28;20682;-71
2021/05/17 00:55:46;;;;;;;27.48;19.23;;;;;;;;;;5029124;28;20229;-70
2021/05/17 00:58:11;;;;;;;25.33;19.02;;;;;;;;;;5022603;28;20221;-70
2021/05/17 01:00:37;;;;;;;25.77;21.33;;;;;;;;;;5034099;28;20239;-70
2021/05/17 01:03:03;;;;;;;31.65;21.08;;;;;;;;;;5020630;28;20256;-70
2021/05/17 01:05:29;;;;;;;29.92;24.05;;;;;;;;;;5028513;28;20186;-70
2021/05/17 01:07:54;;;;;;;23.30;17.38;;;;;;;;;;5024589;28;20197;-71
2021/05/17 01:10:21;;;;;;;21.63;16.10;;;;;;;;;;5028855;28;20193;-70
2021/05/17 01:12:48;;;;;;;21.30;13.77;;;;;;;;;;5028373;28;20209;-70
2021/05/17 01:15:15;;;;;;;15.68;11.68;;;;;;;;;;5021332;28;20186;-70
2021/05/17 01:17:41;;;;;;;17.77;12.95;;;;;;;;;;5030034;28;20683;-71
2021/05/17 01:20:18;;;;;;;19.23;11.95;;;;;;;;;;5018184;28;20194;-71
2021/05/17 01:25:39;;;;;;;17.75;10.38;;;;;;;;;;5021972;28;20305;-71
2021/05/17 01:28:07;;;;;;;22.33;14.25;;;;;;;;;;5027390;28;20265;-72
2021/05/17 01:30:32;;;;;;;21.30;14.07;;;;;;;;;;5020076;28;20724;-71
2021/05/17 01:32:58;;;;;;;22.45;15.90;;;;;;;;;;5028893;28;20216;-70
2021/05/17 01:35:24;;;;;;;22.60;15.68;;;;;;;;;;5020267;28;20868;-71
2021/05/17 01:37:51;;;;;;;32.30;19.33;;;;;;;;;;5027401;28;20194;-71
2021/05/17 01:40:19;;;;;;;22.25;16.08;;;;;;;;;;5017345;28;20645;-71
2021/05/17 01:42:45;;;;;;;26.65;19.00;;;;;;;;;;5029027;28;20185;-71
2021/05/17 01:45:11;;;;;;;27.98;18.10;;;;;;;;;;5016689;28;20251;-71
2021/05/17 01:47:41;;;;;;;23.77;17.70;;;;;;;;;;5028203;28;20225;-71
2021/05/17 01:50:09;;;;;;;22.92;16.73;;;;;;;;;;5018024;28;20280;-71
2021/05/17 01:52:36;;;;;;;24.83;16.98;;;;;;;;;;5025570;28;20267;-70
2021/05/17 01:55:10;;;;;;;23.58;17.42;;;;;;;;;;5026496;28;20188;-71
2021/05/17 01:57:36;;;;;;;20.65;15.27;;;;;;;;;;5021879;28;21205;-71
2021/05/17 02:00:04;;;;;;;20.05;15.38;;;;;;;;;;5028670;28;20186;-71
2021/05/17 02:02:29;;;;;;;20.80;17.25;;;;;;;;;;5020515;28;20209;-71
2021/05/17 02:04:55;;;;;;;20.98;15.52;;;;;;;;;;5029253;28;20672;-72
2021/05/17 02:07:22;;;;;;;18.27;13.48;;;;;;;;;;5018116;28;20231;-71
2021/05/17 02:09:52;;;;;;;20.38;14.65;;;;;;;;;;5031274;28;22993;-73
2021/05/17 02:12:22;;;;;;;17.55;11.43;;;;;;;;;;5019054;28;20288;-71
2021/05/17 02:14:51;;;;;;;14.68;10.80;;;;;;;;;;5026694;28;20190;-71
2021/05/17 02:17:17;;;;;;;16.55;11.35;;;;;;;;;;5018732;28;20869;-71
2021/05/17 02:19:45;;;;;;;19.13;11.43;;;;;;;;;;5027569;28;20201;-72
2021/05/17 02:22:10;;;;;;;17.75;10.68;;;;;;;;;;5018559;28;20193;-74
2021/05/17 02:24:36;;;;;;;13.50;8.85;;;;;;;;;;5028262;28;20551;-75
2021/05/17 02:27:06;;;;;;;16.25;9.32;;;;;;;;;;5026301;28;20192;-74
2021/05/17 02:29:32;;;;;;;12.80;8.52;;;;;;;;;;5024783;28;20320;-74
2021/05/17 02:31:58;;;;;;;12.15;8.52;;;;;;;;;;5025741;28;20653;-73
2021/05/17 02:34:23;;;;;;;16.88;9.30;;;;;;;;;;5020760;28;20262;-74
2021/05/17 02:36:49;;;;;;;12.15;8.93;;;;;;;;;;5027036;28;20204;-74
2021/05/17 02:39:16;;;;;;;14.30;9.48;;;;;;;;;;5021107;28;20556;-74
2021/05/17 02:41:42;;;;;;;10.95;8.82;;;;;;;;;;5028336;28;20190;-73
2021/05/17 02:44:08;;;;;;;13.13;8.40;;;;;;;;;;5020145;28;20201;-75
2021/05/17 02:46:34;;;;;;;12.10;9.00;;;;;;;;;;5026324;28;20283;-73
2021/05/17 02:48:59;;;;;;;13.23;9.52;;;;;;;;;;5016998;28;20604;-73
2021/05/17 02:51:25;;;;;;;14.27;10.10;;;;;;;;;;5029543;28;20188;-74
2021/05/17 02:54:01;;;;;;;14.00;10.38;;;;;;;;;;5020533;28;20564;-74
2021/05/17 02:56:36;;;;;;;16.98;13.07;;;;;;;;;;5025829;28;20263;-73
2021/05/17 02:59:03;;;;;;;18.10;14.10;;;;;;;;;;5021086;28;20196;-73
2021/05/17 03:01:53;;;;;;;15.27;10.63;;;;;;;;;;5024945;28;20728;-74
2021/05/17 03:04:20;;;;;;;13.57;8.90;;;;;;;;;;5017076;28;20253;-73
2021/05/17 03:07:02;;;;;;;13.20;9.43;;;;;;;;;;5025096;28;20230;-73
2021/05/17 03:09:29;;;;;;;11.57;7.75;;;;;;;;;;5019870;28;20642;-73
2021/05/17 03:12:00;;;;;;;14.88;9.20;;;;;;;;;;5027226;28;20209;-73
2021/05/17 03:14:28;;;;;;;14.57;9.93;;;;;;;;;;5024320;28;20259;-73
2021/05/17 03:16:58;;;;;;;15.40;10.35;;;;;;;;;;5018376;28;20245;-72
2021/05/17 03:19:24;;;;;;;14.55;9.90;;;;;;;;;;5039844;28;20188;-72
2021/05/17 03:21:54;;;;;;;19.13;11.60;;;;;;;;;;5023010;28;20235;-72
2021/05/17 03:24:21;;;;;;;15.65;11.35;;;;;;;;;;5032424;28;20220;-73
2021/05/17 03:26:48;;;;;;;14.30;11.30;;;;;;;;;;5023063;28;20668;-73
2021/05/17 03:29:13;;;;;;;15.73;11.35;;;;;;;;;;5030069;28;20185;-73
2021/05/17 03:31:39;;;;;;;13.90;10.57;;;;;;;;;;5021694;28;20193;-72
2021/05/17 03:34:04;;;;;;;14.13;9.80;;;;;;;;;;5030143;28;20198;-72
2021/05/17 03:36:29;;;;;;;19.90;10.77;;;;;;;;;;5024354;28;20269;-72
2021/05/17 03:38:55;;;;;;;16.88;10.13;;;;;;;;;;5030986;28;20548;-73
2021/05/17 03:41:20;;;;;;;14.43;10.15;;;;;;;;;;5025071;28;20211;-73
2021/05/17 03:43:46;;;;;;;14.75;10.48;;;;;;;;;;5029641;28;20189;-73
2021/05/17 03:46:11;;;;;;;15.48;11.32;;;;;;;;;;5024915;28;20258;-74
2021/05/17 03:48:41;;;;;;;16.08;10.85;;;;;;;;;;5031800;28;20243;-73
2021/05/17 03:51:07;;;;;;;16.10;10.82;;;;;;;;;;5032008;28;20587;-73
2021/05/17 03:53:33;;;;;;;12.73;9.00;;;;;;;;;;5021703;28;20213;-74
2021/05/17 03:55:58;;;;;;;15.70;10.23;;;;;;;;;;5031022;28;20224;-74
2021/05/17 03:58:23;;;;;;;14.70;9.45;;;;;;;;;;5022851;28;20186;-75
2021/05/17 04:00:49;;;;;;;13.10;8.35;;;;;;;;;;5030610;28;20612;-74
2021/05/17 04:03:17;;;;;;;15.10;9.30;;;;;;;;;;5020351;28;20585;-75
2021/05/17 04:15:43;;;;;;;12.23;6.88;;;;;;;;;;5029525;28;20221;-74
2021/05/17 04:18:08;;;;;;;11.73;6.78;;;;;;;;;;5023479;28;20211;-73
2021/05/17 04:20:34;;;;;;;12.32;7.38;;;;;;;;;;5028756;28;20189;-74
2021/05/17 04:22:59;;;;;;;8.57;6.45;;;;;;;;;;5029842;28;20218;-71
2021/05/17 04:25:25;;;;;;;10.95;6.55;;;;;;;;;;5020676;28;20289;-74
2021/05/17 04:27:50;;;;;;;9.77;6.65;;;;;;;;;;5030104;28;20272;-74
2021/05/17 04:30:16;;;;;;;9.38;6.50;;;;;;;;;;5019372;28;20194;-72
2021/05/17 04:32:41;;;;;;;7.45;5.65;;;;;;;;;;5028440;28;20669;-72
2021/05/17 04:35:07;;;;;;;8.88;6.75;;;;;;;;;;5021905;28;20188;-74
2021/05/17 04:37:34;;;;;;;8.85;6.43;;;;;;;;;;5030220;28;20760;-75
2021/05/17 04:39:59;;;;;;;11.40;6.43;;;;;;;;;;5020888;28;20196;-75
2021/05/17 04:42:24;;;;;;;9.65;6.82;;;;;;;;;;5028683;28;20180;-74
2021/05/17 04:44:50;;;;;;;8.95;6.93;;;;;;;;;;5021674;28;20213;-74
2021/05/17 04:47:15;;;;;;;10.00;6.70;;;;;;;;;;5029264;28;20280;-73
2021/05/17 04:49:40;;;;;;;12.90;7.80;;;;;;;;;;5022112;28;20540;-72
2021/05/17 04:52:06;;;;;;;11.80;7.43;;;;;;;;;;5027836;28;20504;-75
2021/05/17 04:54:31;;;;;;;10.70;7.10;;;;;;;;;;5030709;28;20553;-73
2021/05/17 04:56:57;;;;;;;8.55;6.45;;;;;;;;;;5018930;28;20194;-74
2021/05/17 04:59:22;;;;;;;11.30;7.55;;;;;;;;;;5025954;28;20276;-72
2021/05/17 05:01:47;;;;;;;9.90;7.00;;;;;;;;;;5020796;28;20220;-72
2021/05/17 05:04:13;;;;;;;13.57;8.05;;;;;;;;;;5028361;28;20677;-74
2021/05/17 05:06:38;;;;;;;13.55;7.65;;;;;;;;;;5021793;28;20186;-73
2021/05/17 05:09:04;;;;;;;9.27;7.57;;;;;;;;;;5031216;28;20570;-75
2021/05/17 05:11:29;;;;;;;10.98;7.90;;;;;;;;;;5021138;28;20268;-71
2021/05/17 05:13:55;;;;;;;14.85;9.07;;;;;;;;;;5030610;28;20295;-71
2021/05/17 05:16:20;;;;;;;10.88;8.45;;;;;;;;;;5021040;28;20178;-74
2021/05/17 05:18:45;;;;;;;9.55;7.50;;;;;;;;;;5027828;28;22210;-72
2021/05/17 05:21:10;;;;;;;11.52;8.25;;;;;;;;;;5027644;28;20198;-71
2021/05/17 05:23:36;;;;;;;10.32;8.65;;;;;;;;;;5020797;28;20512;-70
2021/05/17 05:31:17;;;;;;;12.27;9.23;;;;;;;;;;5026716;28;20268;-71
2021/05/17 05:33:42;;;;;;;14.55;9.98;;;;;;;;;;5019613;28;20537;-72
2021/05/17 05:36:08;;;;;;;14.60;10.13;;;;;;;;;;5026277;28;20186;-73
2021/05/17 05:38:33;;;;;;;16.40;10.35;;;;;;;;;;5019293;28;20200;-76
2021/05/17 05:40:59;;;;;;;15.32;9.18;;;;;;;;;;5025876;28;20198;-74
2021/05/17 05:43:24;;;;;;;13.15;9.60;;;;;;;;;;5020209;28;20199;-74
2021/05/17 05:45:51;;;;;;;16.75;10.25;;;;;;;;;;5030272;28;20224;-76
2021/05/17 05:48:16;;;;;;;14.05;10.07;;;;;;;;;;5019208;28;20598;-72
2021/05/17 05:50:45;;;;;;;14.82;10.73;;;;;;;;;;5030371;28;20196;-72
2021/05/17 05:53:10;;;;;;;14.07;10.60;;;;;;;;;;5017231;28;20202;-72
2021/05/17 05:55:35;;;;;;;14.80;10.75;;;;;;;;;;5029325;28;20255;-73
2021/05/17 05:58:01;;;;;;;12.85;10.43;;;;;;;;;;5027614;28;20316;-72
2021/05/17 06:00:30;;;;;;;11.98;9.30;;;;;;;;;;5019290;28;20264;-71
2021/05/17 06:02:59;;;;;;;12.15;9.20;;;;;;;;;;5027865;28;20198;-71
2021/05/17 06:05:25;;;;;;;10.70;8.82;;;;;;;;;;5020723;28;20189;-70
2021/05/17 06:07:51;;;;;;;13.98;9.70;;;;;;;;;;5026788;28;20239;-72
2021/05/17 06:10:17;;;;;;;10.75;9.13;;;;;;;;;;5017167;28;20334;-72
2021/05/17 06:12:46;;;;;;;9.35;7.65;;;;;;;;;;5029671;28;20376;-72
2021/05/17 06:15:11;;;;;;;13.95;8.85;;;;;;;;;;5015171;28;20196;-70
2021/05/17 06:17:37;;;;;;;9.25;7.50;;;;;;;;;;5029354;28;20259;-73
2021/05/17 06:20:05;;;;;;;11.38;7.13;;;;;;;;;;5021606;28;20189;-72
2021/05/17 06:22:31;;;;;;;8.27;6.50;;;;;;;;;;5027591;28;20200;-73
2021/05/17 06:24:59;;;;;;;11.57;6.75;;;;;;;;;;5020743;28;21262;-74
2021/05/17 06:27:25;;;;;;;8.23;6.75;;;;;;;;;;5028955;28;20194;-74
2021/05/17 06:29:54;;;;;;;8.60;7.00;;;;;;;;;;5027612;28;20177;-75
2021/05/17 06:32:21;;;;;;;10.43;6.60;;;;;;;;;;5029550;28;20181;-77
2021/05/17 06:34:48;;;;;;;15.05;7.32;;;;;;;;;;5024041;28;20981;-74
2021/05/17 06:37:13;;;;;;;11.57;6.43;;;;;;;;;;5015287;28;20197;-73
2021/05/17 06:39:39;;;;;;;7.85;6.03;;;;;;;;;;5027360;28;20189;-73
2021/05/17 06:42:05;;;;;;;7.22;6.25;;;;;;;;;;5018315;28;20196;-72
2021/05/17 06:44:30;;;;;;;8.73;6.00;;;;;;;;;;5027413;28;20554;-74
2021/05/17 06:46:56;;;;;;;9.75;7.10;;;;;;;;;;5016721;28;20225;-74
2021/05/17 06:49:22;;;;;;;9.15;7.32;;;;;;;;;;5024984;28;20632;-74
2021/05/17 06:51:48;;;;;;;8.75;6.53;;;;;;;;;;5014984;28;20658;-73
2021/05/17 06:54:15;;;;;;;8.45;5.88;;;;;;;;;;5027571;28;20229;-73
2021/05/17 06:56:51;;;;;;;9.32;6.50;;;;;;;;;;5016261;28;20557;-72
2021/05/17 06:59:18;;;;;;;11.55;6.75;;;;;;;;;;5026745;28;20250;-73
2021/05/17 07:01:44;;;;;;;7.30;5.80;;;;;;;;;;5019790;28;20336;-72
2021/05/17 07:04:12;;;;;;;9.07;5.75;;;;;;;;;;5029299;28;20696;-74
2021/05/17 07:06:39;;;;;;;10.13;5.93;;;;;;;;;;5025864;28;20189;-71
2021/05/17 07:11:52;;;;;;;9.68;5.20;;;;;;;;;;5026741;28;20347;-73
2021/05/17 07:14:18;;;;;;;7.32;5.60;;;;;;;;;;5017844;28;20320;-74
2021/05/17 07:16:44;;;;;;;8.18;5.32;;;;;;;;;;5028281;28;20676;-72
2021/05/17 07:19:09;;;;;;;8.88;5.85;;;;;;;;;;5024632;28;20197;-72
2021/05/17 07:24:22;;;;;;;10.30;5.28;;;;;;;;;;5019903;28;20626;-71
2021/05/17 07:26:49;;;;;;;8.43;5.40;;;;;;;;;;5026733;28;20272;-72
2021/05/17 07:29:17;;;;;;;9.05;5.57;;;;;;;;;;5007917;28;20194;-72
2021/05/17 07:31:42;;;;;;;9.07;5.57;;;;;;;;;;5023363;28;20205;-72
2021/05/17 07:34:07;;;;;;;11.38;6.65;;;;;;;;;;5013909;28;20210;-72
2021/05/17 07:36:33;;;;;;;7.63;6.70;;;;;;;;;;5022523;28;20186;-72
2021/05/17 07:38:58;;;;;;;7.82;5.68;;;;;;;;;;5013099;28;20599;-72
2021/05/17 07:41:24;;;;;;;8.40;6.13;;;;;;;;;;5023215;28;20672;-72
2021/05/17 07:43:49;;;;;;;8.70;5.70;;;;;;;;;;5023408;28;20235;-73
2021/05/17 07:46:15;;;;;;;8.30;6.22;;;;;;;;;;5017368;28;20313;-73
2021/05/17 07:51:25;;;;;;;8.02;5.38;;;;;;;;;;5019666;28;20746;-71
2021/05/17 07:53:51;;;;;;;11.30;6.40;;;;;;;;;;5025184;28;20213;-72
2021/05/17 07:56:16;;;;;;;9.32;5.65;;;;;;;;;;5017461;28;20576;-71
2021/05/17 07:58:43;;;;;;;7.70;5.72;;;;;;;;;;5023421;28;20534;-71
2021/05/17 08:01:08;;;;;;;7.03;5.75;;;;;;;;;;5015446;28;20726;-71
2021/05/17 08:03:34;;;;;;;8.73;5.40;;;;;;;;;;5024988;28;20285;-71
2021/05/17 08:05:59;;;;;;;7.40;5.25;;;;;;;;;;5021966;28;20189;-73
2021/05/17 08:08:25;;;;;;;6.35;5.10;;;;;;;;;;5028526;28;20219;-72
2021/05/17 08:10:50;;;;;;;7.28;4.82;;;;;;;;;;5018692;28;20549;-73
2021/05/17 08:13:16;;;;;;;8.80;4.88;;;;;;;;;;5030006;28;20209;-72
2021/05/17 08:15:41;;;;;;;10.20;5.18;;;;;;;;;;5025304;28;20202;-72
2021/05/17 08:18:06;;;;;;;9.18;5.57;;;;;;;;;;5033656;28;20727;-71
2021/05/17 08:20:32;;;;;;;7.45;5.50;;;;;;;;;;5027601;28;20258;-71
2021/05/17 08:22:57;;;;;;;8.38;5.43;;;;;;;;;;5023395;28;20178;-72
2021/05/17 08:25:23;;;;;;;7.65;5.50;;;;;;;;;;5032204;28;20653;-71
2021/05/17 08:27:49;;;;;;;8.82;4.70;;;;;;;;;;5025212;28;20207;-72
2021/05/17 08:30:15;;;;;;;7.07;3.22;;;;;;;;;;5028526;28;20208;-73
2021/05/17 08:32:41;;;;;;;8.95;4.60;;;;;;;;;;5021470;28;20209;-71
2021/05/17 08:35:07;;;;;;;6.32;3.95;;;;;;;;;;5028768;28;20273;-72
2021/05/17 08:37:32;;;;;;;6.28;3.30;;;;;;;;;;5022384;28;20189;-71
2021/05/17 08:39:58;;;;;;;6.75;4.10;;;;;;;;;;5030135;28;20205;-70
2021/05/17 08:42:27;;;;;;;11.02;4.28;;;;;;;;;;5022887;28;20286;-74
2021/05/17 08:44:52;;;;;;;7.20;3.97;;;;;;;;;;5030073;28;20208;-74
2021/05/17 08:47:18;;;;;;;4.90;3.33;;;;;;;;;;5018130;28;20230;-73
2021/05/17 08:49:44;;;;;;;2.95;2.65;;;;;;;;;;5031094;28;20185;-72
2021/05/17 08:52:10;;;;;;;4.28;2.25;;;;;;;;;;5026624;28;20272;-72
2021/05/17 08:54:36;;;;;;;4.13;1.95;;;;;;;;;;5022740;28;20201;-72
2021/05/17 08:57:02;;;;;;;4.38;1.90;;;;;;;;;;5029407;28;21506;-71
2021/05/17 08:59:27;;;;;;;4.20;2.50;;;;;;;;;;5020551;28;20224;-71
2021/05/17 09:01:53;;;;;;;5.03;2.75;;;;;;;;;;5029410;28;20634;-69
2021/05/17 09:04:18;;;;;;;6.30;3.35;;;;;;;;;;5020033;28;20535;-72
2021/05/17 09:06:53;;;;;;;6.20;3.38;;;;;;;;;;5030958;28;20256;-71
2021/05/17 09:09:36;;;;;;;6.82;4.25;;;;;;;;;;5017638;28;20198;-71
2021/05/17 09:12:03;;;;;;;7.40;4.20;;;;;;;;;;5026761;28;20304;-71
2021/05/17 09:14:31;;;;;;;4.88;4.00;;;;;;;;;;5028021;28;20697;-70
2021/05/17 09:17:10;;;;;;;7.40;4.60;;;;;;;;;;5028506;28;20231;-71
2021/05/17 09:19:40;;;;;;;8.77;4.10;;;;;;;;;;5020613;28;20186;-71
2021/05/17 09:22:19;;;;;;;5.75;3.78;;;;;;;;;;5027355;28;20214;-71
2021/05/17 09:24:46;;;;;;;7.80;4.28;;;;;;;;;;5017368;28;20220;-71
2021/05/17 09:27:18;;;;;;;7.25;4.22;;;;;;;;;;5027145;28;20182;-70
2021/05/17 09:29:47;;;;;;;11.25;5.47;;;;;;;;;;5021132;28;20182;-70
2021/05/17 09:32:24;;;;;;;6.53;4.72;;;;;;;;;;5027667;28;20193;-70
2021/05/17 09:35:07;;;;;;;5.80;3.85;;;;;;;;;;5019152;28;20229;-69
2021/05/17 09:37:48;;;;;;;7.60;4.13;;;;;;;;;;5026992;28;20633;-69
2021/05/17 09:40:23;;;;;;;5.43;4.18;;;;;;;;;;5017755;28;20197;-69
2021/05/17 09:43:08;;;;;;;7.20;3.63;;;;;;;;;;5029302;28;20671;-69
2021/05/17 09:45:36;;;;;;;6.57;3.85;;;;;;;;;;5020612;28;22573;-69
2021/05/17 09:48:07;;;;;;;6.07;3.67;;;;;;;;;;5030512;28;20225;-69
2021/05/17 09:51:01;;;;;;;7.53;4.20;;;;;;;;;;5025983;28;20226;-69
2021/05/17 09:53:29;;;;;;;6.05;3.55;;;;;;;;;;5026870;28;20709;-70
2021/05/17 09:55:55;;;;;;;7.07;4.22;;;;;;;;;;5019006;28;20194;-70
2021/05/17 09:58:34;;;;;;;6.28;3.22;;;;;;;;;;5026194;28;20193;-72
2021/05/17 10:01:14;;;;;;;5.95;2.50;;;;;;;;;;5030514;28;20633;-72
2021/05/17 10:03:50;;;;;;;4.72;2.53;;;;;;;;;;5028230;28;20181;-72
2021/05/17 10:06:26;;;;;;;3.10;2.05;;;;;;;;;;5024348;28;20787;-72
2021/05/17 10:08:53;;;;;;;6.07;2.40;;;;;;;;;;5028253;28;20292;-72
2021/05/17 10:11:20;;;;;;;4.70;2.40;;;;;;;;;;5027096;28;20194;-71
2021/05/17 10:13:45;;;;;;;6.88;2.45;;;;;;;;;;5020470;28;20318;-72
2021/05/17 10:16:13;;;;;;;3.47;2.40;;;;;;;;;;5026361;28;20201;-71
2021/05/17 10:18:40;;;;;;;4.25;2.72;;;;;;;;;;5024581;28;20198;-71
2021/05/17 10:21:16;;;;;;;6.03;2.78;;;;;;;;;;5028240;28;20534;-72
2021/05/17 10:23:42;;;;;;;5.13;2.15;;;;;;;;;;5022967;28;20190;-70
2021/05/17 10:26:17;;;;;;;5.32;2.30;;;;;;;;;;5025698;28;20653;-71
2021/05/17 10:28:52;;;;;;;5.07;2.00;;;;;;;;;;5021628;28;20185;-71
2021/05/17 10:31:19;;;;;;;3.10;2.17;;;;;;;;;;5026420;28;20197;-71
2021/05/17 10:34:08;;;;;;;7.80;2.55;;;;;;;;;;5019288;28;20212;-71
2021/05/17 10:36:54;;;;;;;5.13;2.65;;;;;;;;;;5028737;28;20197;-70
2021/05/17 10:39:24;;;;;;;4.93;2.38;;;;;;;;;;5017752;28;20227;-70
2021/05/17 10:47:44;;;;;;;3.75;2.47;;;;;;;;;;5027975;28;20256;-70
2021/05/17 10:50:12;;;;;;;5.55;2.58;;;;;;;;;;5019688;28;20188;-71
2021/05/17 10:52:37;;;;;;;4.72;2.13;;;;;;;;;;5027447;28;20625;-70
2021/05/17 10:55:11;;;;;;;4.47;0.98;;;;;;;;;;5018858;28;20247;-70
2021/05/17 10:57:53;;;;;;;1.05;0.63;;;;;;;;;;5027321;28;20304;-69
2021/05/17 11:00:26;;;;;;;1.10;0.55;;;;;;;;;;5019777;28;20276;-70
2021/05/17 11:03:11;;;;;;;1.02;0.22;;;;;;;;;;5027063;28;20236;-69
2021/05/17 11:05:38;;;;;;;0.80;0.13;;;;;;;;;;5015365;28;20185;-70
2021/05/17 11:08:14;;;;;;;0.50;0.20;;;;;;;;;;5027717;28;20186;-69
2021/05/17 11:10:39;;;;;;;2.03;0.43;;;;;;;;;;5016020;28;20242;-71
2021/05/17 11:13:18;;;;;;;0.77;0.25;;;;;;;;;;5021316;28;20689;-71
2021/05/17 11:15:59;;;;;;;0.47;0.20;;;;;;;;;;5019087;28;20189;-72
2021/05/17 11:18:26;;;;;;;0.65;0.20;;;;;;;;;;5032536;28;20247;-70
2021/05/17 11:20:56;;;;;;;2.03;0.68;;;;;;;;;;5022960;28;20256;-69
2021/05/17 11:23:25;;;;;;;1.67;0.65;;;;;;;;;;5026848;28;20178;-69
2021/05/17 11:25:55;;;;;;;3.40;1.10;;;;;;;;;;5017967;28;20193;-69
2021/05/17 11:28:42;;;;;;;2.97;0.95;;;;;;;;;;5027656;28;20243;-70
2021/05/17 11:31:25;;;;;;;3.25;1.40;;;;;;;;;;5011592;28;21192;-70
2021/05/17 11:33:55;;;;;;;2.40;1.10;;;;;;;;;;5024400;28;20294;-69
2021/05/17 11:36:27;;;;;;;2.65;1.23;;;;;;;;;;5016020;28;20201;-69
2021/05/17 11:39:11;;;;;;;1.00;0.90;;;;;;;;;;5028381;28;20656;-69
2021/05/17 11:41:44;;;;;;;2.28;1.23;;;;;;;;;;5022247;28;20178;-69
2021/05/17 11:44:15;;;;;;;1.15;1.05;;;;;;;;;;5028820;28;20182;-69
2021/05/17 11:46:44;;;;;;;3.38;1.70;;;;;;;;;;5023104;28;20228;-69
2021/05/17 11:49:11;;;;;;;3.55;2.00;;;;;;;;;;5031096;28;20591;-70
2021/05/17 11:51:37;;;;;;;4.18;2.00;;;;;;;;;;5030267;28;20547;-69
2021/05/17 11:54:03;;;;;;;4.53;1.85;;;;;;;;;;5027172;28;20205;-70
2021/05/17 11:56:43;;;;;;;2.28;1.88;;;;;;;;;;5029486;28;20192;-69
2021/05/17 11:59:24;;;;;;;3.70;2.25;;;;;;;;;;5022986;28;20202;-69
2021/05/17 12:01:55;;;;;;;2.97;1.30;;;;;;;;;;5031413;28;20998;-70
2021/05/17 12:04:34;;;;;;;3.92;1.10;;;;;;;;;;5021441;28;20247;-70
2021/05/17 12:07:01;;;;;;;6.57;1.33;;;;;;;;;;5029388;28;20189;-74
2021/05/17 12:09:37;;;;;;;10.68;1.48;;;;;;;;;;5022518;28;20185;-78
2021/05/17 12:12:17;;;;;;;4.65;1.48;;;;;;;;;;5030781;28;20358;-73
2021/05/17 12:14:55;;;;;;;5.05;1.20;;;;;;;;;;5021896;28;20216;-71
2021/05/17 12:17:42;;;;;;;3.45;1.38;;;;;;;;;;5030317;28;20739;-70
2021/05/17 12:20:13;;;;;;;3.30;1.50;;;;;;;;;;5020651;28;20662;-69
2021/05/17 12:22:47;;;;;;;3.72;1.27;;;;;;;;;;5031269;28;20269;-69
2021/05/17 12:25:22;;;;;;;3.22;1.30;;;;;;;;;;5018817;28;20656;-69
2021/05/17 12:27:49;;;;;;;2.33;1.52;;;;;;;;;;5030091;28;20615;-69
2021/05/17 12:30:17;;;;;;;3.30;1.60;;;;;;;;;;5019729;28;20672;-68
2021/05/17 12:32:51;;;;;;;4.30;1.90;;;;;;;;;;5029360;28;20188;-68
2021/05/17 12:35:28;;;;;;;5.85;2.78;;;;;;;;;;5021097;28;20264;-68
2021/05/17 12:37:59;;;;;;;4.63;2.55;;;;;;;;;;5029733;28;20204;-67
2021/05/17 12:40:32;;;;;;;4.60;2.25;;;;;;;;;;5021284;28;20275;-67
2021/05/17 12:42:59;;;;;;;5.25;2.10;;;;;;;;;;5027688;28;20234;-67
2021/05/17 12:45:24;;;;;;;3.00;1.60;;;;;;;;;;5018791;28;20303;-67
2021/05/17 12:47:50;;;;;;;4.32;1.70;;;;;;;;;;5027565;28;20226;-66
2021/05/17 12:50:26;;;;;;;3.10;1.63;;;;;;;;;;5020467;28;20271;-66
2021/05/17 12:53:08;;;;;;;3.60;1.90;;;;;;;;;;5029210;28;20225;-66
2021/05/17 12:55:42;;;;;;;2.83;1.65;;;;;;;;;;5021193;28;20251;-67
2021/05/17 12:58:09;;;;;;;5.50;1.92;;;;;;;;;;5031293;28;20196;-66
2021/05/17 13:00:45;;;;;;;3.53;1.98;;;;;;;;;;5018290;28;20197;-66
2021/05/17 13:03:27;;;;;;;4.28;2.10;;;;;;;;;;5025880;28;20558;-67
2021/05/17 13:05:58;;;;;;;2.28;1.75;;;;;;;;;;5019354;28;20194;-67
2021/05/17 13:08:28;;;;;;;2.22;1.85;;;;;;;;;;5029744;28;20194;-67
2021/05/17 13:10:58;;;;;;;3.08;2.10;;;;;;;;;;5024399;28;20182;-67
2021/05/17 13:13:47;;;;;;;2.92;2.38;;;;;;;;;;4332034;28;10021621;-67
2021/05/17 13:16:33;;;;;;;5.10;2.50;;;;;;;;;;5017425;28;20460;-67
2021/05/17 13:19:32;;;;;;;3.03;2.60;;;;;;;;;;5024376;28;20190;-67
2021/05/17 13:30:55;;;;;;;5.03;3.40;;;;;;;;;;5021512;28;20202;-67
2021/05/17 13:33:41;;;;;;;4.57;3.60;;;;;;;;;;5012417;28;20249;-67
2021/05/17 13:36:10;;;;;;;5.43;4.07;;;;;;;;;;5020714;28;20193;-67
2021/05/17 13:38:38;;;;;;;5.53;3.83;;;;;;;;;;5014658;28;20349;-67
2021/05/17 13:41:05;;;;;;;5.22;4.65;;;;;;;;;;5019388;28;20590;-67
2021/05/17 13:43:31;;;;;;;5.95;3.42;;;;;;;;;;5016381;28;20183;-67
2021/05/17 13:45:57;;;;;;;5.78;4.13;;;;;;;;;;5018853;28;20720;-68
2021/05/17 13:48:24;;;;;;;9.65;4.32;;;;;;;;;;5013970;28;20220;-70
2021/05/17 13:50:50;;;;;;;6.85;4.25;;;;;;;;;;5021656;28;20341;-69
2021/05/17 13:53:15;;;;;;;4.75;3.20;;;;;;;;;;5014394;28;20202;-69
2021/05/17 13:55:41;;;;;;;5.28;3.67;;;;;;;;;;5022054;28;20189;-69
2021/05/17 13:58:06;;;;;;;5.78;3.80;;;;;;;;;;5022046;28;20186;-69
2021/05/17 14:00:32;;;;;;;5.72;4.40;;;;;;;;;;5015611;28;20260;-69
2021/05/17 14:02:57;;;;;;;4.78;3.80;;;;;;;;;;5018249;28;20202;-69
2021/05/17 14:05:23;;;;;;;5.07;3.70;;;;;;;;;;5011812;28;20602;-68
2021/05/17 14:07:48;;;;;;;4.82;3.67;;;;;;;;;;5020379;28;20272;-68
2021/05/17 14:10:14;;;;;;;5.40;3.58;;;;;;;;;;5010239;28;20225;-68
2021/05/17 14:12:39;;;;;;;5.25;3.80;;;;;;;;;;5021319;28;20677;-67
2021/05/17 14:15:11;;;;;;;4.93;3.80;;;;;;;;;;5009079;28;20259;-67
2021/05/17 14:17:37;;;;;;;6.18;4.47;;;;;;;;;;5023515;28;20180;-67
2021/05/17 14:20:14;;;;;;;7.05;4.50;;;;;;;;;;5012191;28;20293;-67
2021/05/17 14:22:41;;;;;;;5.53;4.85;;;;;;;;;;5021971;28;20196;-67
2021/05/17 14:25:07;;;;;;;5.63;4.93;;;;;;;;;;5012479;28;20461;-68
2021/05/17 14:27:33;;;;;;;5.75;4.38;;;;;;;;;;5024186;28;20186;-67
2021/05/17 14:29:59;;;;;;;7.55;5.75;;;;;;;;;;5021815;28;20547;-68
2021/05/17 14:32:24;;;;;;;6.28;5.68;;;;;;;;;;5013463;28;20251;-68
2021/05/17 14:34:49;;;;;;;6.65;5.95;;;;;;;;;;5020431;28;20271;-68
2021/05/17 14:37:15;;;;;;;6.93;6.22;;;;;;;;;;5013923;28;20186;-68
2021/05/17 14:39:40;;;;;;;6.72;5.93;;;;;;;;;;5023025;28;20244;-68
2021/05/17 14:42:06;;;;;;;8.23;6.10;;;;;;;;;;5012799;28;20197;-68
2021/05/17 14:44:32;;;;;;;7.72;6.15;;;;;;;;;;5024521;28;20228;-69
2021/05/17 14:46:57;;;;;;;9.52;6.55;;;;;;;;;;5010785;28;20233;-68
2021/05/17 14:49:23;;;;;;;6.72;6.05;;;;;;;;;;5021023;28;20193;-69
2021/05/17 14:51:48;;;;;;;8.65;6.20;;;;;;;;;;5013834;28;20193;-68
2021/05/17 14:54:13;;;;;;;8.15;6.50;;;;;;;;;;5020327;28;20227;-68
2021/05/17 14:56:39;;;;;;;8.13;6.40;;;;;;;;;;5012544;28;20571;-68
2021/05/17 14:59:04;;;;;;;7.57;6.03;;;;;;;;;;5020508;28;20197;-68
2021/05/17 15:01:29;;;;;;;6.82;6.13;;;;;;;;;;5022314;28;20680;-69
2021/05/17 15:03:55;;;;;;;9.45;6.05;;;;;;;;;;5015555;28;20558;-68
2021/05/17 15:06:20;;;;;;;7.53;6.20;;;;;;;;;;5021509;28;20236;-68
2021/05/17 15:08:46;;;;;;;7.55;5.65;;;;;;;;;;5017892;28;20284;-67
2021/05/17 15:11:11;;;;;;;7.53;6.68;;;;;;;;;;5023807;28;20205;-69
2021/05/17 15:13:37;;;;;;;7.93;6.50;;;;;;;;;;5020777;28;20216;-70
2021/05/17 15:16:02;;;;;;;7.80;7.00;;;;;;;;;;5029070;28;20260;-68
2021/05/17 15:18:27;;;;;;;8.75;7.50;;;;;;;;;;5021062;28;20189;-68
2021/05/17 15:20:53;;;;;;;10.27;7.97;;;;;;;;;;5028407;28;20260;-68
2021/05/17 15:23:22;;;;;;;10.13;8.65;;;;;;;;;;5019363;28;24700;-69